메인 페이지
METAR-TAF:

METAR-TAF

공항 :

안토파가스타, 칠레

위도: 23-26S, 경도: 070-26W, 고도: 135m

현재 날씨관측

예보는 27분 전, 23:00시(UTC)에 발표되었습니다.
남남서12kt
온도 16°C
습도 88%
기압 1019 hPa
시정 10km 이상
고도 900ft 상공 구름 보통
고도 1800ft 상공 구름 많음

METAR: SCFA 012300Z 20012KT 9999 SCT009 BKN018 16/14 Q1019 NOSIG

시각: 19:27 (23:27 UTC)

예보

예보는 5 시간 57분 전, 17:30시(UTC)에 발표되었습니다.
예보 대상 시간: 01일 18시부터 02일 18시까지 (UTC)
남남서15kt
시정 10km 이상
고도 600ft 상공 구름 많음
전환 중
02일 00시부터 02일 02시까지 (UTC)
10kt
전환 중
02일 04시부터 02일 06시까지 (UTC)
남남동4kt
시정: 7000m
고도 500ft 상공 흐림
전환 중
02일 13시부터 02일 15시까지 (UTC)
남남서4kt
시정 10km 이상
고도 500ft 상공 구름 많음
전환 중
02일 16시부터 02일 18시까지 (UTC)
남남서12kt
고도 600ft 상공 구름 보통

TAF: SCFA 011730Z 0118/0218 21015KT 9999 BKN006 TX17/0118Z TN16/0206Z BECMG 0200/0202 18010KT BECMG 0204/0206 15004KT 7000 OVC005 BECMG 0213/0215 20004KT 9999 BKN005 BECMG 0216/0218 20012KT SCT006

4,000개 이상의 공항 관측 자료 및 예보 (METAR 및 TAF 보고).

지도상에서 검색 가능한 기상관측소가 노란 점과 빨간 점으로 표시되어 있습니다.

기상관측소 명을 보려면 표시 위로 마우스를 이동하세요.

날씨 관측과 예보를 보려면 클릭하세요.

지도 변경 : 확대하려면 엑스 표시가 있는 녹색 버튼, 축소하려면 빼기 표시가 있는 녹색 버튼, 다음 페이지의 지도를 보려면 녹색 화살표를 클릭하세요.


METAR-TAF: